sensor_id;sensor_type;location;lat;lon;timestamp;pressure;altitude;pressure_sealevel;temperature;humidity
27984;BME280;15317;50.360;8.726;2023-11-19T00:01:49;99292.09;;;6.68;100.00
27984;BME280;15317;50.360;8.726;2023-11-19T00:06:53;99241.94;;;6.66;100.00
27984;BME280;15317;50.360;8.726;2023-11-19T00:11:56;99253.28;;;6.69;100.00
27984;BME280;15317;50.360;8.726;2023-11-19T00:16:59;99247.91;;;6.69;100.00
27984;BME280;15317;50.360;8.726;2023-11-19T00:22:04;99253.88;;;6.73;100.00
27984;BME280;15317;50.360;8.726;2023-11-19T00:27:07;99236.53;;;6.75;100.00
27984;BME280;15317;50.360;8.726;2023-11-19T00:32:10;99249.91;;;6.77;100.00
27984;BME280;15317;50.360;8.726;2023-11-19T00:37:16;99236.00;;;6.82;100.00
27984;BME280;15317;50.360;8.726;2023-11-19T00:42:19;99219.22;;;6.88;100.00
27984;BME280;15317;50.360;8.726;2023-11-19T00:47:22;99227.31;;;6.88;100.00
27984;BME280;15317;50.360;8.726;2023-11-19T00:52:27;99221.63;;;6.91;100.00
27984;BME280;15317;50.360;8.726;2023-11-19T00:57:30;99212.09;;;6.96;100.00
27984;BME280;15317;50.360;8.726;2023-11-19T01:02:34;99200.75;;;6.93;100.00
27984;BME280;15317;50.360;8.726;2023-11-19T01:07:39;99186.97;;;6.96;100.00
27984;BME280;15317;50.360;8.726;2023-11-19T01:12:42;99180.00;;;6.93;100.00
27984;BME280;15317;50.360;8.726;2023-11-19T01:17:45;99168.63;;;6.99;100.00
27984;BME280;15317;50.360;8.726;2023-11-19T01:22:53;99169.16;;;7.03;100.00
27984;BME280;15317;50.360;8.726;2023-11-19T01:27:56;99166.91;;;7.08;100.00
27984;BME280;15317;50.360;8.726;2023-11-19T01:33:00;99172.72;;;7.13;100.00
27984;BME280;15317;50.360;8.726;2023-11-19T01:38:04;99174.00;;;7.09;100.00
27984;BME280;15317;50.360;8.726;2023-11-19T01:43:10;99164.88;;;7.10;100.00
27984;BME280;15317;50.360;8.726;2023-11-19T01:48:16;99161.91;;;7.13;100.00
27984;BME280;15317;50.360;8.726;2023-11-19T01:53:21;99147.81;;;7.19;100.00
27984;BME280;15317;50.360;8.726;2023-11-19T01:58:25;99142.97;;;7.23;100.00
27984;BME280;15317;50.360;8.726;2023-11-19T02:03:28;99125.63;;;7.25;100.00
27984;BME280;15317;50.360;8.726;2023-11-19T02:08:36;99137.00;;;7.29;100.00
27984;BME280;15317;50.360;8.726;2023-11-19T02:13:40;99126.31;;;7.27;100.00
27984;BME280;15317;50.360;8.726;2023-11-19T02:18:46;99130.28;;;7.33;100.00
27984;BME280;15317;50.360;8.726;2023-11-19T02:23:52;99134.53;;;7.35;100.00
27984;BME280;15317;50.360;8.726;2023-11-19T02:28:57;99120.91;;;7.37;100.00
27984;BME280;15317;50.360;8.726;2023-11-19T02:34:00;99107.06;;;7.40;100.00
27984;BME280;15317;50.360;8.726;2023-11-19T02:39:04;99100.81;;;7.39;100.00
27984;BME280;15317;50.360;8.726;2023-11-19T02:44:14;99099.09;;;7.38;100.00
27984;BME280;15317;50.360;8.726;2023-11-19T02:49:17;99074.97;;;7.37;100.00
27984;BME280;15317;50.360;8.726;2023-11-19T02:54:20;99098.13;;;7.39;100.00
27984;BME280;15317;50.360;8.726;2023-11-19T02:59:30;99089.16;;;7.39;100.00
27984;BME280;15317;50.360;8.726;2023-11-19T03:04:41;99093.56;;;7.40;100.00
27984;BME280;15317;50.360;8.726;2023-11-19T03:09:47;99069.56;;;7.37;100.00
27984;BME280;15317;50.360;8.726;2023-11-19T03:14:53;99082.63;;;7.41;100.00
27984;BME280;15317;50.360;8.726;2023-11-19T03:19:57;99084.84;;;7.46;100.00
27984;BME280;15317;50.360;8.726;2023-11-19T03:25:01;99061.78;;;7.51;100.00
27984;BME280;15317;50.360;8.726;2023-11-19T03:30:06;99064.06;;;7.56;100.00
27984;BME280;15317;50.360;8.726;2023-11-19T03:35:11;99062.03;;;7.58;100.00
27984;BME280;15317;50.360;8.726;2023-11-19T03:40:14;99064.28;;;7.63;100.00
27984;BME280;15317;50.360;8.726;2023-11-19T03:45:19;99071.66;;;7.70;100.00
27984;BME280;15317;50.360;8.726;2023-11-19T03:50:22;99061.38;;;7.74;100.00
27984;BME280;15317;50.360;8.726;2023-11-19T03:55:26;99064.44;;;7.79;100.00
27984;BME280;15317;50.360;8.726;2023-11-19T04:00:30;99078.69;;;7.81;100.00
27984;BME280;15317;50.360;8.726;2023-11-19T04:05:33;99050.09;;;7.78;100.00
27984;BME280;15317;50.360;8.726;2023-11-19T04:10:37;99049.66;;;7.83;100.00
27984;BME280;15317;50.360;8.726;2023-11-19T04:15:42;99050.50;;;7.83;100.00
27984;BME280;15317;50.360;8.726;2023-11-19T04:20:45;99048.22;;;7.79;100.00
27984;BME280;15317;50.360;8.726;2023-11-19T04:25:49;99039.13;;;7.80;100.00
27984;BME280;15317;50.360;8.726;2023-11-19T04:30:53;99044.25;;;7.83;100.00
27984;BME280;15317;50.360;8.726;2023-11-19T04:35:57;99030.09;;;7.89;100.00
27984;BME280;15317;50.360;8.726;2023-11-19T04:41:01;99028.69;;;7.85;100.00
27984;BME280;15317;50.360;8.726;2023-11-19T04:46:06;99028.78;;;7.93;100.00
27984;BME280;15317;50.360;8.726;2023-11-19T04:51:10;99045.78;;;8.03;100.00
27984;BME280;15317;50.360;8.726;2023-11-19T04:56:13;99040.06;;;8.06;100.00
27984;BME280;15317;50.360;8.726;2023-11-19T05:01:20;99046.66;;;8.04;100.00
27984;BME280;15317;50.360;8.726;2023-11-19T05:06:26;99041.75;;;8.07;100.00
27984;BME280;15317;50.360;8.726;2023-11-19T05:11:29;99044.47;;;8.07;100.00
27984;BME280;15317;50.360;8.726;2023-11-19T05:16:34;99048.34;;;8.22;100.00
27984;BME280;15317;50.360;8.726;2023-11-19T05:21:38;99042.78;;;8.24;100.00
27984;BME280;15317;50.360;8.726;2023-11-19T05:26:41;99045.63;;;8.22;100.00
27984;BME280;15317;50.360;8.726;2023-11-19T05:31:45;99050.25;;;8.12;100.00
27984;BME280;15317;50.360;8.726;2023-11-19T05:36:50;99044.16;;;8.10;100.00
27984;BME280;15317;50.360;8.726;2023-11-19T05:41:53;99028.63;;;8.12;100.00
27984;BME280;15317;50.360;8.726;2023-11-19T05:46:58;99028.63;;;8.12;100.00
27984;BME280;15317;50.360;8.726;2023-11-19T05:52:02;99038.34;;;8.05;100.00
27984;BME280;15317;50.360;8.726;2023-11-19T05:57:10;99040.06;;;8.06;100.00
27984;BME280;15317;50.360;8.726;2023-11-19T06:02:17;99042.13;;;8.12;100.00
27984;BME280;15317;50.360;8.726;2023-11-19T06:07:20;99035.97;;;8.20;100.00
27984;BME280;15317;50.360;8.726;2023-11-19T06:12:23;99051.41;;;8.27;100.00
27984;BME280;15317;50.360;8.726;2023-11-19T06:17:28;99047.34;;;8.23;100.00
27984;BME280;15317;50.360;8.726;2023-11-19T06:22:31;99061.47;;;8.17;100.00
27984;BME280;15317;50.360;8.726;2023-11-19T06:27:35;99067.28;;;8.22;100.00
27984;BME280;15317;50.360;8.726;2023-11-19T06:32:40;99055.75;;;8.20;100.00
27984;BME280;15317;50.360;8.726;2023-11-19T06:37:44;99050.41;;;8.28;100.00
27984;BME280;15317;50.360;8.726;2023-11-19T06:42:47;99060.13;;;8.31;100.00
27984;BME280;15317;50.360;8.726;2023-11-19T06:47:51;99059.78;;;8.34;100.00
27984;BME280;15317;50.360;8.726;2023-11-19T06:52:55;99067.38;;;8.30;100.00
27984;BME280;15317;50.360;8.726;2023-11-19T06:57:59;99067.47;;;8.39;100.00
27984;BME280;15317;50.360;8.726;2023-11-19T07:03:05;99060.00;;;8.41;100.00
27984;BME280;15317;50.360;8.726;2023-11-19T07:08:11;99064.28;;;8.43;100.00
27984;BME280;15317;50.360;8.726;2023-11-19T07:13:14;99064.13;;;8.45;100.00
27984;BME280;15317;50.360;8.726;2023-11-19T07:18:19;99063.94;;;8.46;100.00
27984;BME280;15317;50.360;8.726;2023-11-19T07:23:24;99074.31;;;8.51;100.00
27984;BME280;15317;50.360;8.726;2023-11-19T07:28:27;99075.53;;;8.56;100.00
27984;BME280;15317;50.360;8.726;2023-11-19T07:33:32;99070.03;;;8.66;100.00
27984;BME280;15317;50.360;8.726;2023-11-19T07:38:36;99069.41;;;8.72;100.00
27984;BME280;15317;50.360;8.726;2023-11-19T07:43:43;99079.22;;;8.73;100.00
27984;BME280;15317;50.360;8.726;2023-11-19T07:48:49;99087.38;;;8.81;100.00
27984;BME280;15317;50.360;8.726;2023-11-19T07:53:52;99085.75;;;8.88;100.00
27984;BME280;15317;50.360;8.726;2023-11-19T07:58:56;99085.66;;;8.98;100.00
27984;BME280;15317;50.360;8.726;2023-11-19T08:04:00;99082.50;;;9.10;100.00
27984;BME280;15317;50.360;8.726;2023-11-19T08:09:05;99086.69;;;9.31;100.00
27984;BME280;15317;50.360;8.726;2023-11-19T08:14:08;99098.38;;;9.31;100.00
27984;BME280;15317;50.360;8.726;2023-11-19T08:19:13;99096.81;;;9.21;100.00
27984;BME280;15317;50.360;8.726;2023-11-19T08:24:17;99089.38;;;8.97;100.00
27984;BME280;15317;50.360;8.726;2023-11-19T08:29:20;99087.88;;;9.02;100.00
27984;BME280;15317;50.360;8.726;2023-11-19T08:34:24;99080.97;;;9.08;100.00
27984;BME280;15317;50.360;8.726;2023-11-19T08:39:28;99082.44;;;9.70;100.00
27984;BME280;15317;50.360;8.726;2023-11-19T08:44:32;99085.84;;;10.47;100.00
27984;BME280;15317;50.360;8.726;2023-11-19T08:49:37;99088.31;;;11.29;100.00
27984;BME280;15317;50.360;8.726;2023-11-19T08:54:42;99091.66;;;12.25;100.00
27984;BME280;15317;50.360;8.726;2023-11-19T08:59:45;99063.25;;;13.03;100.00
27984;BME280;15317;50.360;8.726;2023-11-19T09:04:50;99028.56;;;13.70;100.00
27984;BME280;15317;50.360;8.726;2023-11-19T09:09:55;99035.47;;;14.23;100.00
27984;BME280;15317;50.360;8.726;2023-11-19T09:14:59;99028.75;;;14.69;100.00
27984;BME280;15317;50.360;8.726;2023-11-19T09:20:05;99034.75;;;14.79;100.00
27984;BME280;15317;50.360;8.726;2023-11-19T09:25:08;99042.22;;;15.19;98.32
27984;BME280;15317;50.360;8.726;2023-11-19T09:30:12;99035.38;;;15.09;99.33
27984;BME280;15317;50.360;8.726;2023-11-19T09:35:17;99044.19;;;15.04;94.23
27984;BME280;15317;50.360;8.726;2023-11-19T09:40:20;99047.81;;;15.11;94.71
27984;BME280;15317;50.360;8.726;2023-11-19T09:45:27;99052.06;;;15.48;93.22
27984;BME280;15317;50.360;8.726;2023-11-19T09:50:32;99069.34;;;15.49;87.75
27984;BME280;15317;50.360;8.726;2023-11-19T09:55:35;99070.25;;;15.56;85.05
27984;BME280;15317;50.360;8.726;2023-11-19T10:00:39;99064.91;;;15.82;83.20
27984;BME280;15317;50.360;8.726;2023-11-19T10:05:44;99054.34;;;15.79;80.39
27984;BME280;15317;50.360;8.726;2023-11-19T10:10:47;99060.75;;;15.99;80.32
27984;BME280;15317;50.360;8.726;2023-11-19T10:15:51;99070.41;;;15.82;74.30
27984;BME280;15317;50.360;8.726;2023-11-19T10:20:56;99056.16;;;15.59;75.72
27984;BME280;15317;50.360;8.726;2023-11-19T10:26:04;99053.16;;;15.88;74.37
27984;BME280;15317;50.360;8.726;2023-11-19T10:31:08;99047.28;;;16.04;75.40
27984;BME280;15317;50.360;8.726;2023-11-19T10:36:13;99058.72;;;16.21;73.18
27984;BME280;15317;50.360;8.726;2023-11-19T10:41:26;99054.53;;;16.32;73.54
27984;BME280;15317;50.360;8.726;2023-11-19T10:46:39;99047.72;;;16.01;68.57
27984;BME280;15317;50.360;8.726;2023-11-19T10:51:45;99051.53;;;16.13;68.62
27984;BME280;15317;50.360;8.726;2023-11-19T10:56:54;99045.25;;;16.33;67.74
27984;BME280;15317;50.360;8.726;2023-11-19T11:01:58;99048.22;;;16.38;69.21
27984;BME280;15317;50.360;8.726;2023-11-19T11:07:05;99049.53;;;16.55;67.16
27984;BME280;15317;50.360;8.726;2023-11-19T11:12:09;99062.00;;;16.57;63.99
27984;BME280;15317;50.360;8.726;2023-11-19T11:17:17;99057.09;;;16.53;64.31
27984;BME280;15317;50.360;8.726;2023-11-19T11:22:22;99058.84;;;16.67;65.23
27984;BME280;15317;50.360;8.726;2023-11-19T11:27:42;99047.47;;;16.96;62.65
27984;BME280;15317;50.360;8.726;2023-11-19T11:33:03;99060.56;;;16.94;61.46
27984;BME280;15317;50.360;8.726;2023-11-19T11:38:11;99069.41;;;16.70;63.79
27984;BME280;15317;50.360;8.726;2023-11-19T11:43:43;99055.69;;;16.70;62.28
27984;BME280;15317;50.360;8.726;2023-11-19T11:48:48;99066.47;;;16.91;60.47
27984;BME280;15317;50.360;8.726;2023-11-19T11:53:52;99072.75;;;17.51;61.30
27984;BME280;15317;50.360;8.726;2023-11-19T11:58:56;99067.91;;;17.20;62.75
27984;BME280;15317;50.360;8.726;2023-11-19T12:04:01;99062.00;;;17.36;63.08
27984;BME280;15317;50.360;8.726;2023-11-19T12:09:06;99065.59;;;17.24;64.40
27984;BME280;15317;50.360;8.726;2023-11-19T12:14:13;99052.75;;;17.11;58.39
27984;BME280;15317;50.360;8.726;2023-11-19T12:19:16;99046.59;;;17.29;61.70
27984;BME280;15317;50.360;8.726;2023-11-19T12:24:21;99040.09;;;16.90;60.79
27984;BME280;15317;50.360;8.726;2023-11-19T12:29:24;99030.38;;;16.94;63.61
27984;BME280;15317;50.360;8.726;2023-11-19T12:34:28;99028.06;;;16.91;61.92
27984;BME280;15317;50.360;8.726;2023-11-19T12:39:32;99019.63;;;16.60;63.14
27984;BME280;15317;50.360;8.726;2023-11-19T12:44:35;99020.91;;;16.64;61.08
27984;BME280;15317;50.360;8.726;2023-11-19T12:49:39;99001.69;;;16.71;64.45
27984;BME280;15317;50.360;8.726;2023-11-19T12:54:43;99005.84;;;16.47;59.91
27984;BME280;15317;50.360;8.726;2023-11-19T12:59:55;98989.38;;;16.14;60.03
27984;BME280;15317;50.360;8.726;2023-11-19T13:05:22;98989.00;;;16.37;63.15
27984;BME280;15317;50.360;8.726;2023-11-19T13:10:27;98990.03;;;16.23;59.80
27984;BME280;15317;50.360;8.726;2023-11-19T13:15:31;98970.38;;;15.99;59.31
27984;BME280;15317;50.360;8.726;2023-11-19T13:20:34;98981.47;;;15.78;65.04
27984;BME280;15317;50.360;8.726;2023-11-19T13:25:39;98973.91;;;15.80;60.52
27984;BME280;15317;50.360;8.726;2023-11-19T13:30:42;98979.44;;;16.00;61.52
27984;BME280;15317;50.360;8.726;2023-11-19T13:35:46;98978.69;;;15.65;60.11
27984;BME280;15317;50.360;8.726;2023-11-19T13:40:50;98980.94;;;15.14;63.30
27984;BME280;15317;50.360;8.726;2023-11-19T13:45:54;98981.31;;;14.76;63.96
27984;BME280;15317;50.360;8.726;2023-11-19T13:50:57;98979.75;;;14.95;65.75
27984;BME280;15317;50.360;8.726;2023-11-19T13:56:03;98964.34;;;15.22;68.10
27984;BME280;15317;50.360;8.726;2023-11-19T14:01:06;98962.09;;;14.97;71.86
27984;BME280;15317;50.360;8.726;2023-11-19T14:06:10;98945.88;;;14.61;71.80
27984;BME280;15317;50.360;8.726;2023-11-19T14:11:16;98945.63;;;14.56;77.89
27984;BME280;15317;50.360;8.726;2023-11-19T14:16:19;98954.88;;;14.55;73.72
27984;BME280;15317;50.360;8.726;2023-11-19T14:21:22;98955.91;;;14.54;74.94
27984;BME280;15317;50.360;8.726;2023-11-19T14:26:30;98949.53;;;14.47;74.23
27984;BME280;15317;50.360;8.726;2023-11-19T14:31:34;98940.16;;;14.35;76.57
27984;BME280;15317;50.360;8.726;2023-11-19T14:36:37;98942.47;;;14.32;73.75
27984;BME280;15317;50.360;8.726;2023-11-19T14:41:43;98943.31;;;14.11;73.29
27984;BME280;15317;50.360;8.726;2023-11-19T14:46:46;98942.66;;;13.88;73.85
27984;BME280;15317;50.360;8.726;2023-11-19T14:51:50;98933.66;;;13.72;74.51
27984;BME280;15317;50.360;8.726;2023-11-19T14:56:54;98942.22;;;13.48;75.93
27984;BME280;15317;50.360;8.726;2023-11-19T15:01:58;98937.38;;;13.29;76.46
27984;BME280;15317;50.360;8.726;2023-11-19T15:07:02;98944.72;;;13.14;77.35
27984;BME280;15317;50.360;8.726;2023-11-19T15:12:08;98946.03;;;13.18;77.61
27984;BME280;15317;50.360;8.726;2023-11-19T15:17:11;98956.72;;;13.04;81.06
27984;BME280;15317;50.360;8.726;2023-11-19T15:22:14;98957.69;;;12.82;80.97
27984;BME280;15317;50.360;8.726;2023-11-19T15:27:19;98966.38;;;12.63;83.91
27984;BME280;15317;50.360;8.726;2023-11-19T15:32:24;98968.25;;;12.62;82.39
27984;BME280;15317;50.360;8.726;2023-11-19T15:37:27;98964.38;;;12.57;83.00
27984;BME280;15317;50.360;8.726;2023-11-19T15:42:32;98969.22;;;12.32;86.26
27984;BME280;15317;50.360;8.726;2023-11-19T15:47:35;98989.25;;;12.16;87.66
27984;BME280;15317;50.360;8.726;2023-11-19T15:52:38;98986.72;;;11.92;90.00
27984;BME280;15317;50.360;8.726;2023-11-19T15:57:43;99000.84;;;11.87;92.40
27984;BME280;15317;50.360;8.726;2023-11-19T16:02:46;99004.50;;;11.80;92.66
27984;BME280;15317;50.360;8.726;2023-11-19T16:07:50;99007.41;;;11.78;93.54
27984;BME280;15317;50.360;8.726;2023-11-19T16:12:54;99011.41;;;11.91;92.60
27984;BME280;15317;50.360;8.726;2023-11-19T16:17:57;99006.41;;;11.94;91.28
27984;BME280;15317;50.360;8.726;2023-11-19T16:23:01;99005.41;;;11.95;91.51
27984;BME280;15317;50.360;8.726;2023-11-19T16:28:07;98995.88;;;11.99;92.93
27984;BME280;15317;50.360;8.726;2023-11-19T16:33:10;98999.44;;;12.00;91.94
27984;BME280;15317;50.360;8.726;2023-11-19T16:38:26;99008.75;;;12.05;90.35
27984;BME280;15317;50.360;8.726;2023-11-19T16:43:31;99019.75;;;12.12;89.43
27984;BME280;15317;50.360;8.726;2023-11-19T16:48:35;99016.13;;;12.19;89.11
27984;BME280;15317;50.360;8.726;2023-11-19T16:53:38;99021.19;;;12.22;90.36
27984;BME280;15317;50.360;8.726;2023-11-19T16:58:43;99027.31;;;12.24;90.57
27984;BME280;15317;50.360;8.726;2023-11-19T17:03:46;99023.06;;;12.22;89.84
27984;BME280;15317;50.360;8.726;2023-11-19T17:08:50;99022.09;;;12.15;90.91
27984;BME280;15317;50.360;8.726;2023-11-19T17:13:55;99024.94;;;11.99;91.42
27984;BME280;15317;50.360;8.726;2023-11-19T17:18:58;99025.56;;;11.86;93.05
27984;BME280;15317;50.360;8.726;2023-11-19T17:24:01;99028.06;;;11.87;92.94
27984;BME280;15317;50.360;8.726;2023-11-19T17:29:06;99034.63;;;12.01;91.53
27984;BME280;15317;50.360;8.726;2023-11-19T17:34:10;99031.84;;;11.86;92.74
27984;BME280;15317;50.360;8.726;2023-11-19T17:39:13;99034.16;;;11.59;94.90
27984;BME280;15317;50.360;8.726;2023-11-19T17:44:18;99019.66;;;11.27;98.20
27984;BME280;15317;50.360;8.726;2023-11-19T17:49:21;99024.63;;;11.24;99.51
27984;BME280;15317;50.360;8.726;2023-11-19T17:54:25;99034.59;;;11.39;97.04
27984;BME280;15317;50.360;8.726;2023-11-19T17:59:30;99031.50;;;11.42;97.12
27984;BME280;15317;50.360;8.726;2023-11-19T18:04:33;99038.66;;;11.43;97.17
27984;BME280;15317;50.360;8.726;2023-11-19T18:09:39;99039.63;;;11.51;96.21
27984;BME280;15317;50.360;8.726;2023-11-19T18:14:43;99039.34;;;11.45;96.30
27984;BME280;15317;50.360;8.726;2023-11-19T18:19:49;99040.72;;;11.33;96.12
27984;BME280;15317;50.360;8.726;2023-11-19T18:24:53;99038.38;;;11.22;96.22
27984;BME280;15317;50.360;8.726;2023-11-19T18:29:57;99033.94;;;11.29;94.92
27984;BME280;15317;50.360;8.726;2023-11-19T18:35:00;99041.72;;;11.40;93.50
27984;BME280;15317;50.360;8.726;2023-11-19T18:40:05;99025.75;;;11.37;92.70
27984;BME280;15317;50.360;8.726;2023-11-19T18:45:12;99034.91;;;11.44;91.03
27984;BME280;15317;50.360;8.726;2023-11-19T18:50:16;99033.78;;;11.31;91.26
27984;BME280;15317;50.360;8.726;2023-11-19T18:55:20;99034.13;;;11.20;93.04
27984;BME280;15317;50.360;8.726;2023-11-19T19:00:25;99036.69;;;11.21;91.65
27984;BME280;15317;50.360;8.726;2023-11-19T19:05:28;99044.16;;;11.19;93.47
27984;BME280;15317;50.360;8.726;2023-11-19T19:10:32;99038.72;;;11.19;93.71
27984;BME280;15317;50.360;8.726;2023-11-19T19:15:40;99031.25;;;11.13;94.30
27984;BME280;15317;50.360;8.726;2023-11-19T19:20:44;99030.25;;;11.14;95.93
27984;BME280;15317;50.360;8.726;2023-11-19T19:25:47;99028.22;;;11.16;96.47
27984;BME280;15317;50.360;8.726;2023-11-19T19:30:52;99024.19;;;11.04;98.73
27984;BME280;15317;50.360;8.726;2023-11-19T19:35:55;99027.06;;;11.02;98.68
27984;BME280;15317;50.360;8.726;2023-11-19T19:40:58;99036.06;;;11.03;99.60
27984;BME280;15317;50.360;8.726;2023-11-19T19:46:07;99035.91;;;11.04;99.61
27984;BME280;15317;50.360;8.726;2023-11-19T19:51:11;99030.97;;;10.92;100.00
27984;BME280;15317;50.360;8.726;2023-11-19T19:56:15;99022.66;;;10.93;100.00
27984;BME280;15317;50.360;8.726;2023-11-19T20:01:19;99030.81;;;10.85;100.00
27984;BME280;15317;50.360;8.726;2023-11-19T20:06:23;99021.50;;;10.80;100.00
27984;BME280;15317;50.360;8.726;2023-11-19T20:11:26;99028.66;;;10.73;100.00
27984;BME280;15317;50.360;8.726;2023-11-19T20:16:35;99028.00;;;10.71;100.00
27984;BME280;15317;50.360;8.726;2023-11-19T20:21:38;99031.19;;;10.66;100.00
27984;BME280;15317;50.360;8.726;2023-11-19T20:26:41;99021.19;;;10.58;100.00
27984;BME280;15317;50.360;8.726;2023-11-19T20:31:46;99012.88;;;10.52;100.00
27984;BME280;15317;50.360;8.726;2023-11-19T20:36:50;99020.38;;;10.50;100.00
27984;BME280;15317;50.360;8.726;2023-11-19T20:41:54;99019.00;;;10.46;100.00
27984;BME280;15317;50.360;8.726;2023-11-19T20:46:58;99023.25;;;10.48;100.00
27984;BME280;15317;50.360;8.726;2023-11-19T20:52:06;99014.78;;;10.43;100.00
27984;BME280;15317;50.360;8.726;2023-11-19T20:57:10;99021.53;;;10.39;100.00
27984;BME280;15317;50.360;8.726;2023-11-19T21:02:14;99023.25;;;10.40;100.00
27984;BME280;15317;50.360;8.726;2023-11-19T21:07:17;99023.75;;;10.36;100.00
27984;BME280;15317;50.360;8.726;2023-11-19T21:12:21;99013.59;;;10.29;100.00
27984;BME280;15317;50.360;8.726;2023-11-19T21:17:26;99012.38;;;10.32;100.00
27984;BME280;15317;50.360;8.726;2023-11-19T21:22:29;99017.97;;;10.30;100.00
27984;BME280;15317;50.360;8.726;2023-11-19T21:27:33;99012.38;;;10.32;100.00
27984;BME280;15317;50.360;8.726;2023-11-19T21:32:37;99021.72;;;10.38;100.00
27984;BME280;15317;50.360;8.726;2023-11-19T21:37:40;99023.41;;;10.39;100.00
27984;BME280;15317;50.360;8.726;2023-11-19T21:42:44;99018.84;;;10.39;100.00
27984;BME280;15317;50.360;8.726;2023-11-19T21:47:49;99030.03;;;10.36;100.00
27984;BME280;15317;50.360;8.726;2023-11-19T21:52:53;99022.91;;;10.35;100.00
27984;BME280;15317;50.360;8.726;2023-11-19T21:57:56;99004.94;;;10.42;100.00
27984;BME280;15317;50.360;8.726;2023-11-19T22:03:00;99017.97;;;10.39;100.00
27984;BME280;15317;50.360;8.726;2023-11-19T22:08:04;99003.06;;;10.43;100.00
27984;BME280;15317;50.360;8.726;2023-11-19T22:13:11;99006.28;;;10.38;100.00
27984;BME280;15317;50.360;8.726;2023-11-19T22:18:16;99020.53;;;10.48;100.00
27984;BME280;15317;50.360;8.726;2023-11-19T22:23:19;99009.84;;;10.55;100.00
27984;BME280;15317;50.360;8.726;2023-11-19T22:28:22;99011.38;;;10.57;100.00
27984;BME280;15317;50.360;8.726;2023-11-19T22:33:27;99006.09;;;10.56;100.00
27984;BME280;15317;50.360;8.726;2023-11-19T22:38:31;99006.28;;;10.54;100.00
27984;BME280;15317;50.360;8.726;2023-11-19T22:43:34;98994.03;;;10.58;100.00
27984;BME280;15317;50.360;8.726;2023-11-19T22:48:39;98989.28;;;10.60;100.00
27984;BME280;15317;50.360;8.726;2023-11-19T22:53:42;98983.53;;;10.63;100.00
27984;BME280;15317;50.360;8.726;2023-11-19T22:58:46;98984.84;;;10.67;100.00
27984;BME280;15317;50.360;8.726;2023-11-19T23:03:53;98989.44;;;10.67;100.00
27984;BME280;15317;50.360;8.726;2023-11-19T23:08:56;98985.72;;;10.68;100.00
27984;BME280;15317;50.360;8.726;2023-11-19T23:14:00;99000.13;;;10.77;100.00
27984;BME280;15317;50.360;8.726;2023-11-19T23:19:04;99010.63;;;10.80;100.00
27984;BME280;15317;50.360;8.726;2023-11-19T23:24:08;99004.88;;;10.83;100.00
27984;BME280;15317;50.360;8.726;2023-11-19T23:29:12;99014.38;;;10.79;100.00
27984;BME280;15317;50.360;8.726;2023-11-19T23:34:19;99010.31;;;10.83;100.00
27984;BME280;15317;50.360;8.726;2023-11-19T23:39:44;99013.88;;;10.83;100.00
27984;BME280;15317;50.360;8.726;2023-11-19T23:44:48;99010.63;;;10.88;100.00
27984;BME280;15317;50.360;8.726;2023-11-19T23:49:52;99010.09;;;10.92;100.00
27984;BME280;15317;50.360;8.726;2023-11-19T23:54:55;99012.94;;;11.07;100.00
